sensor_id;sensor_type;location;lat;lon;timestamp;pressure;altitude;pressure_sealevel;temperature;humidity
21960;BME280;11144;43.030;25.108;2023-04-28T00:00:07;99428.13;;;11.16;100.00
21960;BME280;11144;43.030;25.108;2023-04-28T00:01:42;99432.53;;;11.16;100.00
21960;BME280;11144;43.030;25.108;2023-04-28T00:03:15;99431.78;;;11.12;100.00
21960;BME280;11144;43.030;25.108;2023-04-28T00:04:49;99426.47;;;11.12;100.00
21960;BME280;11144;43.030;25.108;2023-04-28T00:06:23;99435.34;;;11.11;100.00
21960;BME280;11144;43.030;25.108;2023-04-28T00:07:55;99438.81;;;11.13;100.00
21960;BME280;11144;43.030;25.108;2023-04-28T00:09:30;99438.72;;;11.16;100.00
21960;BME280;11144;43.030;25.108;2023-04-28T00:11:03;99437.72;;;11.19;100.00
21960;BME280;11144;43.030;25.108;2023-04-28T00:12:40;99442.03;;;11.21;100.00
21960;BME280;11144;43.030;25.108;2023-04-28T00:14:13;99427.25;;;11.16;100.00
21960;BME280;11144;43.030;25.108;2023-04-28T00:15:48;99440.19;;;11.23;100.00
21960;BME280;11144;43.030;25.108;2023-04-28T00:17:23;99435.72;;;11.25;100.00
21960;BME280;11144;43.030;25.108;2023-04-28T00:18:57;99440.06;;;11.26;100.00
21960;BME280;11144;43.030;25.108;2023-04-28T00:20:30;99436.75;;;11.21;100.00
21960;BME280;11144;43.030;25.108;2023-04-28T00:22:03;99443.75;;;11.22;100.00
21960;BME280;11144;43.030;25.108;2023-04-28T00:23:37;99433.28;;;11.19;100.00
21960;BME280;11144;43.030;25.108;2023-04-28T00:25:11;99446.50;;;11.19;100.00
21960;BME280;11144;43.030;25.108;2023-04-28T00:26:45;99446.41;;;11.22;100.00
21960;BME280;11144;43.030;25.108;2023-04-28T00:28:17;99442.25;;;11.15;100.00
21960;BME280;11144;43.030;25.108;2023-04-28T00:30:06;99442.25;;;11.15;100.00
21960;BME280;11144;43.030;25.108;2023-04-28T00:31:40;99447.53;;;11.15;100.00
21960;BME280;11144;43.030;25.108;2023-04-28T00:33:13;99445.63;;;11.20;100.00
21960;BME280;11144;43.030;25.108;2023-04-28T00:34:46;99444.69;;;11.21;100.00
21960;BME280;11144;43.030;25.108;2023-04-28T00:36:20;99449.88;;;11.24;100.00
21960;BME280;11144;43.030;25.108;2023-04-28T00:37:53;99452.63;;;11.21;100.00
21960;BME280;11144;43.030;25.108;2023-04-28T00:39:26;99452.69;;;11.20;100.00
21960;BME280;11144;43.030;25.108;2023-04-28T00:41:00;99454.34;;;11.22;100.00
21960;BME280;11144;43.030;25.108;2023-04-28T00:42:34;99454.34;;;11.22;100.00
21960;BME280;11144;43.030;25.108;2023-04-28T00:44:07;99449.16;;;11.19;100.00
21960;BME280;11144;43.030;25.108;2023-04-28T00:45:40;99451.59;;;11.25;100.00
21960;BME280;11144;43.030;25.108;2023-04-28T00:47:12;99455.97;;;11.26;100.00
21960;BME280;11144;43.030;25.108;2023-04-28T00:48:49;99458.78;;;11.22;100.00
21960;BME280;11144;43.030;25.108;2023-04-28T00:50:23;99458.03;;;11.18;100.00
21960;BME280;11144;43.030;25.108;2023-04-28T00:51:57;99461.03;;;11.09;100.00
21960;BME280;11144;43.030;25.108;2023-04-28T00:53:34;99457.53;;;11.07;100.00
21960;BME280;11144;43.030;25.108;2023-04-28T00:55:09;99460.09;;;11.10;100.00
21960;BME280;11144;43.030;25.108;2023-04-28T00:56:43;99451.31;;;11.08;100.00
21960;BME280;11144;43.030;25.108;2023-04-28T00:58:17;99458.69;;;11.00;100.00
21960;BME280;11144;43.030;25.108;2023-04-28T00:59:51;99461.31;;;11.00;100.00
21960;BME280;11144;43.030;25.108;2023-04-28T01:01:25;99472.00;;;10.97;100.00
21960;BME280;11144;43.030;25.108;2023-04-28T01:02:58;99470.97;;;11.01;100.00
21960;BME280;11144;43.030;25.108;2023-04-28T01:04:36;99462.25;;;10.99;100.00
21960;BME280;11144;43.030;25.108;2023-04-28T01:06:10;99469.25;;;11.00;100.00
21960;BME280;11144;43.030;25.108;2023-04-28T01:07:44;99468.22;;;11.04;100.00
21960;BME280;11144;43.030;25.108;2023-04-28T01:09:17;99468.41;;;11.00;100.00
21960;BME280;11144;43.030;25.108;2023-04-28T01:10:52;99474.56;;;11.00;100.00
21960;BME280;11144;43.030;25.108;2023-04-28T01:12:44;99471.91;;;11.00;100.00
21960;BME280;11144;43.030;25.108;2023-04-28T01:14:18;99479.00;;;11.00;100.00
21960;BME280;11144;43.030;25.108;2023-04-28T01:15:51;99476.41;;;10.98;100.00
21960;BME280;11144;43.030;25.108;2023-04-28T01:17:24;99479.06;;;10.98;100.00
21960;BME280;11144;43.030;25.108;2023-04-28T01:18:59;99468.69;;;10.92;100.00
21960;BME280;11144;43.030;25.108;2023-04-28T01:20:31;99471.31;;;10.92;100.00
21960;BME280;11144;43.030;25.108;2023-04-28T01:22:04;99465.25;;;10.90;100.00
21960;BME280;11144;43.030;25.108;2023-04-28T01:23:37;99464.41;;;10.88;100.00
21960;BME280;11144;43.030;25.108;2023-04-28T01:25:12;99469.81;;;10.85;100.00
21960;BME280;11144;43.030;25.108;2023-04-28T01:26:45;99467.25;;;10.82;100.00
21960;BME280;11144;43.030;25.108;2023-04-28T01:28:17;99462.19;;;10.76;100.00
21960;BME280;11144;43.030;25.108;2023-04-28T01:29:51;99456.31;;;10.68;100.00
21960;BME280;11144;43.030;25.108;2023-04-28T01:31:23;99456.31;;;10.68;100.00
21960;BME280;11144;43.030;25.108;2023-04-28T01:32:57;99465.97;;;10.69;100.00
21960;BME280;11144;43.030;25.108;2023-04-28T01:34:29;99465.13;;;10.67;100.00
21960;BME280;11144;43.030;25.108;2023-04-28T01:36:03;99464.41;;;10.64;100.00
21960;BME280;11144;43.030;25.108;2023-04-28T01:37:36;99473.13;;;10.66;100.00
21960;BME280;11144;43.030;25.108;2023-04-28T01:39:09;99477.56;;;10.65;100.00
21960;BME280;11144;43.030;25.108;2023-04-28T01:40:45;99474.09;;;10.63;100.00
21960;BME280;11144;43.030;25.108;2023-04-28T01:42:18;99472.38;;;10.62;100.00
21960;BME280;11144;43.030;25.108;2023-04-28T01:43:51;99477.56;;;10.65;100.00
21960;BME280;11144;43.030;25.108;2023-04-28T01:45:24;99475.81;;;10.64;100.00
21960;BME280;11144;43.030;25.108;2023-04-28T01:46:57;99477.66;;;10.62;100.00
21960;BME280;11144;43.030;25.108;2023-04-28T01:48:29;99488.25;;;10.62;100.00
21960;BME280;11144;43.030;25.108;2023-04-28T01:50:03;99481.22;;;10.61;100.00
21960;BME280;11144;43.030;25.108;2023-04-28T01:51:37;99478.59;;;10.61;100.00
21960;BME280;11144;43.030;25.108;2023-04-28T01:53:12;99483.81;;;10.63;100.00
21960;BME280;11144;43.030;25.108;2023-04-28T01:54:45;99482.94;;;10.62;100.00
21960;BME280;11144;43.030;25.108;2023-04-28T01:56:21;99485.66;;;10.61;100.00
21960;BME280;11144;43.030;25.108;2023-04-28T01:57:56;99490.28;;;10.54;100.00
21960;BME280;11144;43.030;25.108;2023-04-28T01:59:31;99483.25;;;10.53;100.00
21960;BME280;11144;43.030;25.108;2023-04-28T02:01:04;99486.91;;;10.49;100.00
21960;BME280;11144;43.030;25.108;2023-04-28T02:02:38;99484.31;;;10.48;100.00
21960;BME280;11144;43.030;25.108;2023-04-28T02:04:12;99485.28;;;10.45;100.00
21960;BME280;11144;43.030;25.108;2023-04-28T02:05:46;99487.31;;;10.37;100.00
21960;BME280;11144;43.030;25.108;2023-04-28T02:07:19;99483.09;;;10.31;100.00
21960;BME280;11144;43.030;25.108;2023-04-28T02:08:52;99490.97;;;10.33;100.00
21960;BME280;11144;43.030;25.108;2023-04-28T02:10:24;99489.25;;;10.32;100.00
21960;BME280;11144;43.030;25.108;2023-04-28T02:11:59;99494.53;;;10.32;100.00
21960;BME280;11144;43.030;25.108;2023-04-28T02:13:34;99495.44;;;10.31;100.00
21960;BME280;11144;43.030;25.108;2023-04-28T02:15:08;99499.91;;;10.29;100.00
21960;BME280;11144;43.030;25.108;2023-04-28T02:16:40;99505.25;;;10.27;100.00
21960;BME280;11144;43.030;25.108;2023-04-28T02:18:15;99501.94;;;10.21;100.00
21960;BME280;11144;43.030;25.108;2023-04-28T02:19:47;99503.75;;;10.19;100.00
21960;BME280;11144;43.030;25.108;2023-04-28T02:21:26;99503.97;;;10.13;100.00
21960;BME280;11144;43.030;25.108;2023-04-28T02:22:59;99500.75;;;10.02;100.00
21960;BME280;11144;43.030;25.108;2023-04-28T02:24:34;99502.47;;;10.03;100.00
21960;BME280;11144;43.030;25.108;2023-04-28T02:26:07;99500.84;;;9.99;100.00
21960;BME280;11144;43.030;25.108;2023-04-28T02:27:42;99495.66;;;9.96;100.00
21960;BME280;11144;43.030;25.108;2023-04-28T02:29:14;99497.31;;;9.98;100.00
21960;BME280;11144;43.030;25.108;2023-04-28T02:30:47;99506.03;;;10.02;100.00
21960;BME280;11144;43.030;25.108;2023-04-28T02:32:20;99506.13;;;9.99;100.00
21960;BME280;11144;43.030;25.108;2023-04-28T02:33:55;99502.66;;;9.97;100.00
21960;BME280;11144;43.030;25.108;2023-04-28T02:35:28;99515.06;;;9.95;100.00
21960;BME280;11144;43.030;25.108;2023-04-28T02:37:02;99514.31;;;9.90;100.00
21960;BME280;11144;43.030;25.108;2023-04-28T02:38:34;99512.63;;;9.87;100.00
21960;BME280;11144;43.030;25.108;2023-04-28T02:40:10;99518.88;;;9.85;100.00
21960;BME280;11144;43.030;25.108;2023-04-28T02:41:43;99514.69;;;9.78;100.00
21960;BME280;11144;43.030;25.108;2023-04-28T02:43:17;99514.81;;;9.73;100.00
21960;BME280;11144;43.030;25.108;2023-04-28T02:44:50;99513.97;;;9.73;100.00
21960;BME280;11144;43.030;25.108;2023-04-28T02:46:22;99515.84;;;9.68;100.00
21960;BME280;11144;43.030;25.108;2023-04-28T02:47:56;99520.41;;;9.63;100.00
21960;BME280;11144;43.030;25.108;2023-04-28T02:49:33;99523.22;;;9.57;100.00
21960;BME280;11144;43.030;25.108;2023-04-28T02:51:05;99523.41;;;9.51;100.00
21960;BME280;11144;43.030;25.108;2023-04-28T02:52:39;99521.84;;;9.44;100.00
21960;BME280;11144;43.030;25.108;2023-04-28T02:54:12;99536.03;;;9.40;100.00
21960;BME280;11144;43.030;25.108;2023-04-28T02:55:46;99532.63;;;9.35;100.00
21960;BME280;11144;43.030;25.108;2023-04-28T02:57:19;99536.28;;;9.31;100.00
21960;BME280;11144;43.030;25.108;2023-04-28T02:58:53;99542.50;;;9.28;100.00
21960;BME280;11144;43.030;25.108;2023-04-28T03:00:27;99542.63;;;9.24;100.00
21960;BME280;11144;43.030;25.108;2023-04-28T03:02:00;99546.19;;;9.23;100.00
21960;BME280;11144;43.030;25.108;2023-04-28T03:03:33;99555.03;;;9.20;100.00
21960;BME280;11144;43.030;25.108;2023-04-28T03:05:07;99550.72;;;9.18;100.00
21960;BME280;11144;43.030;25.108;2023-04-28T03:06:41;99559.63;;;9.14;100.00
21960;BME280;11144;43.030;25.108;2023-04-28T03:08:13;99557.06;;;9.11;100.00
21960;BME280;11144;43.030;25.108;2023-04-28T03:09:46;99553.63;;;9.07;100.00
21960;BME280;11144;43.030;25.108;2023-04-28T03:11:20;99562.53;;;9.03;100.00
21960;BME280;11144;43.030;25.108;2023-04-28T03:12:52;99554.81;;;8.96;100.00
21960;BME280;11144;43.030;25.108;2023-04-28T03:14:27;99568.81;;;8.98;100.00
21960;BME280;11144;43.030;25.108;2023-04-28T03:15:59;99559.22;;;8.95;100.00
21960;BME280;11144;43.030;25.108;2023-04-28T03:17:32;99564.53;;;8.94;100.00
21960;BME280;11144;43.030;25.108;2023-04-28T03:19:07;99565.44;;;8.93;100.00
21960;BME280;11144;43.030;25.108;2023-04-28T03:20:40;99563.72;;;8.92;100.00
21960;BME280;11144;43.030;25.108;2023-04-28T03:22:13;99576.00;;;8.93;100.00
21960;BME280;11144;43.030;25.108;2023-04-28T03:23:46;99569.06;;;8.89;100.00
21960;BME280;11144;43.030;25.108;2023-04-28T03:25:20;99572.63;;;8.88;100.00
21960;BME280;11144;43.030;25.108;2023-04-28T03:26:55;99577.00;;;8.87;100.00
21960;BME280;11144;43.030;25.108;2023-04-28T03:28:28;99574.47;;;8.83;100.00
21960;BME280;11144;43.030;25.108;2023-04-28T03:30:05;99579.81;;;8.80;100.00
21960;BME280;11144;43.030;25.108;2023-04-28T03:31:39;99592.19;;;8.78;100.00
21960;BME280;11144;43.030;25.108;2023-04-28T03:33:11;99583.44;;;8.76;100.00
21960;BME280;11144;43.030;25.108;2023-04-28T03:34:44;99586.91;;;8.78;100.00
21960;BME280;11144;43.030;25.108;2023-04-28T03:36:18;99590.53;;;8.74;100.00
21960;BME280;11144;43.030;25.108;2023-04-28T03:37:52;99592.44;;;8.69;100.00
21960;BME280;11144;43.030;25.108;2023-04-28T03:39:24;99594.22;;;8.67;100.00
21960;BME280;11144;43.030;25.108;2023-04-28T03:40:57;99589.97;;;8.61;100.00
21960;BME280;11144;43.030;25.108;2023-04-28T03:42:48;99597.13;;;8.56;100.00
21960;BME280;11144;43.030;25.108;2023-04-28T03:44:30;99606.84;;;8.53;100.00
21960;BME280;11144;43.030;25.108;2023-04-28T03:46:04;99600.66;;;8.54;100.00
21960;BME280;11144;43.030;25.108;2023-04-28T03:47:38;99600.56;;;8.58;100.00
21960;BME280;11144;43.030;25.108;2023-04-28T03:49:10;99607.63;;;8.58;100.00
21960;BME280;11144;43.030;25.108;2023-04-28T03:50:45;99606.75;;;8.57;100.00
21960;BME280;11144;43.030;25.108;2023-04-28T03:52:19;99618.97;;;8.60;100.00
21960;BME280;11144;43.030;25.108;2023-04-28T03:53:51;99617.06;;;8.66;100.00
21960;BME280;11144;43.030;25.108;2023-04-28T03:55:25;99615.25;;;8.70;100.00
21960;BME280;11144;43.030;25.108;2023-04-28T03:56:58;99617.03;;;8.68;100.00
21960;BME280;11144;43.030;25.108;2023-04-28T03:58:31;99618.63;;;8.75;100.00
21960;BME280;11144;43.030;25.108;2023-04-28T04:00:06;99623.91;;;8.75;100.00
21960;BME280;11144;43.030;25.108;2023-04-28T04:01:47;99630.88;;;8.76;100.00
21960;BME280;11144;43.030;25.108;2023-04-28T04:03:20;99638.06;;;8.71;100.00
21960;BME280;11144;43.030;25.108;2023-04-28T04:04:59;99638.06;;;8.71;100.00
21960;BME280;11144;43.030;25.108;2023-04-28T04:06:33;99636.16;;;8.76;100.00
21960;BME280;11144;43.030;25.108;2023-04-28T04:08:06;99632.75;;;8.72;100.00
21960;BME280;11144;43.030;25.108;2023-04-28T04:09:39;99648.53;;;8.74;100.00
21960;BME280;11144;43.030;25.108;2023-04-28T04:11:13;99645.72;;;8.80;100.00
21960;BME280;11144;43.030;25.108;2023-04-28T04:12:46;99650.84;;;8.87;100.00
21960;BME280;11144;43.030;25.108;2023-04-28T04:14:19;99638.59;;;8.85;100.00
21960;BME280;11144;43.030;25.108;2023-04-28T04:15:53;99641.31;;;8.82;100.00
21960;BME280;11144;43.030;25.108;2023-04-28T04:17:29;99657.19;;;8.79;100.00
21960;BME280;11144;43.030;25.108;2023-04-28T04:19:02;99648.59;;;8.71;100.00
21960;BME280;11144;43.030;25.108;2023-04-28T04:20:46;99646.94;;;8.67;100.00
21960;BME280;11144;43.030;25.108;2023-04-28T04:22:20;99648.59;;;8.71;100.00
21960;BME280;11144;43.030;25.108;2023-04-28T04:23:53;99655.53;;;8.75;100.00
21960;BME280;11144;43.030;25.108;2023-04-28T04:25:27;99655.53;;;8.75;100.00
21960;BME280;11144;43.030;25.108;2023-04-28T04:27:00;99657.34;;;8.73;100.00
21960;BME280;11144;43.030;25.108;2023-04-28T04:28:40;99654.75;;;8.71;100.00
21960;BME280;11144;43.030;25.108;2023-04-28T04:30:14;99651.19;;;8.72;100.00
21960;BME280;11144;43.030;25.108;2023-04-28T04:31:46;99660.03;;;8.71;100.00
21960;BME280;11144;43.030;25.108;2023-04-28T04:33:21;99661.75;;;8.72;100.00
21960;BME280;11144;43.030;25.108;2023-04-28T04:34:55;99653.88;;;8.71;100.00
21960;BME280;11144;43.030;25.108;2023-04-28T04:36:29;99662.63;;;8.73;100.00
21960;BME280;11144;43.030;25.108;2023-04-28T04:38:04;99662.53;;;8.76;100.00
21960;BME280;11144;43.030;25.108;2023-04-28T04:39:38;99653.75;;;8.77;100.00
21960;BME280;11144;43.030;25.108;2023-04-28T04:41:13;99662.44;;;8.80;100.00
21960;BME280;11144;43.030;25.108;2023-04-28T04:42:46;99656.19;;;8.84;100.00
21960;BME280;11144;43.030;25.108;2023-04-28T04:44:24;99654.34;;;8.88;100.00
21960;BME280;11144;43.030;25.108;2023-04-28T04:45:58;99659.50;;;8.92;100.00
21960;BME280;11144;43.030;25.108;2023-04-28T04:47:31;99664.63;;;8.98;100.00
21960;BME280;11144;43.030;25.108;2023-04-28T04:49:06;99667.31;;;8.97;100.00
21960;BME280;11144;43.030;25.108;2023-04-28T04:50:40;99662.94;;;8.96;100.00
21960;BME280;11144;43.030;25.108;2023-04-28T04:52:14;99661.09;;;8.99;100.00
21960;BME280;11144;43.030;25.108;2023-04-28T04:53:47;99663.63;;;9.04;100.00
21960;BME280;11144;43.030;25.108;2023-04-28T04:55:20;99674.09;;;9.07;100.00
21960;BME280;11144;43.030;25.108;2023-04-28T04:56:55;99674.09;;;9.07;100.00
21960;BME280;11144;43.030;25.108;2023-04-28T04:59:07;99679.22;;;9.13;100.00
21960;BME280;11144;43.030;25.108;2023-04-28T05:00:52;99676.63;;;9.11;100.00
21960;BME280;11144;43.030;25.108;2023-04-28T05:02:25;99684.41;;;9.16;100.00
21960;BME280;11144;43.030;25.108;2023-04-28T05:03:58;99690.50;;;9.19;100.00
21960;BME280;11144;43.030;25.108;2023-04-28T05:05:33;99688.63;;;9.23;100.00
21960;BME280;11144;43.030;25.108;2023-04-28T05:07:12;99682.44;;;9.24;100.00
21960;BME280;11144;43.030;25.108;2023-04-28T05:08:45;99689.47;;;9.25;100.00
21960;BME280;11144;43.030;25.108;2023-04-28T05:10:18;99687.59;;;9.30;100.00
21960;BME280;11144;43.030;25.108;2023-04-28T05:11:52;99692.88;;;9.30;100.00
21960;BME280;11144;43.030;25.108;2023-04-28T05:13:25;99692.94;;;9.27;100.00
21960;BME280;11144;43.030;25.108;2023-04-28T05:15:06;99682.41;;;9.25;100.00
21960;BME280;11144;43.030;25.108;2023-04-28T05:16:43;99691.28;;;9.23;100.00
21960;BME280;11144;43.030;25.108;2023-04-28T05:18:25;99691.34;;;9.20;100.00
21960;BME280;11144;43.030;25.108;2023-04-28T05:19:58;99693.09;;;9.21;100.00
21960;BME280;11144;43.030;25.108;2023-04-28T05:21:33;99697.47;;;9.22;100.00
21960;BME280;11144;43.030;25.108;2023-04-28T05:23:07;99694.69;;;9.28;100.00
21960;BME280;11144;43.030;25.108;2023-04-28T05:24:41;99688.41;;;9.33;100.00
21960;BME280;11144;43.030;25.108;2023-04-28T05:26:14;99693.53;;;9.38;100.00
21960;BME280;11144;43.030;25.108;2023-04-28T05:27:48;99695.97;;;9.47;100.00
21960;BME280;11144;43.030;25.108;2023-04-28T05:29:21;99702.81;;;9.54;100.00
21960;BME280;11144;43.030;25.108;2023-04-28T05:30:55;99699.19;;;9.58;100.00
21960;BME280;11144;43.030;25.108;2023-04-28T05:32:27;99697.34;;;9.60;100.00
21960;BME280;11144;43.030;25.108;2023-04-28T05:34:00;99704.38;;;9.61;100.00
21960;BME280;11144;43.030;25.108;2023-04-28T05:35:33;99706.91;;;9.65;100.00
21960;BME280;11144;43.030;25.108;2023-04-28T05:37:08;99702.41;;;9.69;100.00
21960;BME280;11144;43.030;25.108;2023-04-28T05:38:44;99702.31;;;9.72;100.00
21960;BME280;11144;43.030;25.108;2023-04-28T05:40:18;99702.25;;;9.75;100.00
21960;BME280;11144;43.030;25.108;2023-04-28T05:41:51;99701.34;;;9.76;100.00
21960;BME280;11144;43.030;25.108;2023-04-28T05:43:25;99698.72;;;9.76;100.00
21960;BME280;11144;43.030;25.108;2023-04-28T05:44:58;99703.88;;;9.79;100.00
21960;BME280;11144;43.030;25.108;2023-04-28T05:46:31;99714.44;;;9.79;100.00
21960;BME280;11144;43.030;25.108;2023-04-28T05:48:05;99710.94;;;9.80;100.00
21960;BME280;11144;43.030;25.108;2023-04-28T05:49:39;99711.84;;;9.77;100.00
21960;BME280;11144;43.030;25.108;2023-04-28T05:51:12;99712.81;;;9.75;100.00
21960;BME280;11144;43.030;25.108;2023-04-28T05:52:47;99721.56;;;9.77;100.00
21960;BME280;11144;43.030;25.108;2023-04-28T05:54:20;99718.84;;;9.80;100.00
21960;BME280;11144;43.030;25.108;2023-04-28T05:55:56;99719.66;;;9.82;100.00
21960;BME280;11144;43.030;25.108;2023-04-28T05:57:30;99726.78;;;9.80;100.00
21960;BME280;11144;43.030;25.108;2023-04-28T05:59:21;99720.69;;;9.76;100.00
21960;BME280;11144;43.030;25.108;2023-04-28T06:00:54;99728.56;;;9.78;100.00
21960;BME280;11144;43.030;25.108;2023-04-28T06:02:27;99721.56;;;9.77;100.00
21960;BME280;11144;43.030;25.108;2023-04-28T06:04:01;99718.97;;;9.75;100.00
21960;BME280;11144;43.030;25.108;2023-04-28T06:05:34;99725.19;;;9.73;100.00
21960;BME280;11144;43.030;25.108;2023-04-28T06:07:09;99732.13;;;9.77;100.00
21960;BME280;11144;43.030;25.108;2023-04-28T06:08:44;99729.38;;;9.81;100.00
21960;BME280;11144;43.030;25.108;2023-04-28T06:10:17;99738.13;;;9.82;100.00
21960;BME280;11144;43.030;25.108;2023-04-28T06:11:51;99731.22;;;9.78;100.00
21960;BME280;11144;43.030;25.108;2023-04-28T06:13:24;99735.50;;;9.82;100.00
21960;BME280;11144;43.030;25.108;2023-04-28T06:14:57;99731.94;;;9.83;100.00
21960;BME280;11144;43.030;25.108;2023-04-28T06:16:31;99733.69;;;9.84;100.00
21960;BME280;11144;43.030;25.108;2023-04-28T06:18:04;99733.53;;;9.90;100.00
21960;BME280;11144;43.030;25.108;2023-04-28T06:19:38;99736.94;;;9.95;100.00
21960;BME280;11144;43.030;25.108;2023-04-28T06:21:11;99733.22;;;10.02;100.00
21960;BME280;11144;43.030;25.108;2023-04-28T06:22:43;99733.06;;;10.08;100.00
21960;BME280;11144;43.030;25.108;2023-04-28T06:24:18;99736.47;;;10.13;100.00
21960;BME280;11144;43.030;25.108;2023-04-28T06:25:52;99741.56;;;10.19;100.00
21960;BME280;11144;43.030;25.108;2023-04-28T06:27:25;99743.22;;;10.23;100.00
21960;BME280;11144;43.030;25.108;2023-04-28T06:29:00;99733.34;;;10.29;100.00
21960;BME280;11144;43.030;25.108;2023-04-28T06:30:34;99743.78;;;10.34;100.00
21960;BME280;11144;43.030;25.108;2023-04-28T06:32:07;99734.13;;;10.33;100.00
21960;BME280;11144;43.030;25.108;2023-04-28T06:33:40;99742.78;;;10.38;100.00
21960;BME280;11144;43.030;25.108;2023-04-28T06:35:15;99740.81;;;10.46;100.00
21960;BME280;11144;43.030;25.108;2023-04-28T06:36:48;99740.53;;;10.55;100.00
21960;BME280;11144;43.030;25.108;2023-04-28T06:38:21;99741.22;;;10.62;100.00
21960;BME280;11144;43.030;25.108;2023-04-28T06:39:56;99742.69;;;10.72;100.00
21960;BME280;11144;43.030;25.108;2023-04-28T06:41:29;99746.84;;;10.80;100.00
21960;BME280;11144;43.030;25.108;2023-04-28T06:43:03;99741.16;;;10.92;100.00
21960;BME280;11144;43.030;25.108;2023-04-28T06:44:47;99748.31;;;10.90;100.00
21960;BME280;11144;43.030;25.108;2023-04-28T06:46:21;99742.84;;;10.95;100.00
21960;BME280;11144;43.030;25.108;2023-04-28T06:47:54;99742.53;;;11.05;100.00
21960;BME280;11144;43.030;25.108;2023-04-28T06:49:27;99738.00;;;11.09;100.00
21960;BME280;11144;43.030;25.108;2023-04-28T06:51:04;99739.97;;;11.02;100.00
21960;BME280;11144;43.030;25.108;2023-04-28T06:52:39;99744.16;;;11.09;100.00
21960;BME280;11144;43.030;25.108;2023-04-28T06:54:12;99743.88;;;11.18;100.00
21960;BME280;11144;43.030;25.108;2023-04-28T06:55:49;99739.81;;;11.34;100.00
21960;BME280;11144;43.030;25.108;2023-04-28T06:57:24;99741.06;;;11.50;100.00
21960;BME280;11144;43.030;25.108;2023-04-28T06:58:59;99745.97;;;11.62;100.00
21960;BME280;11144;43.030;25.108;2023-04-28T07:00:33;99744.59;;;11.77;100.00
21960;BME280;11144;43.030;25.108;2023-04-28T07:02:06;99741.59;;;11.87;100.00
21960;BME280;11144;43.030;25.108;2023-04-28T07:03:40;99747.50;;;11.95;100.00
21960;BME280;11144;43.030;25.108;2023-04-28T07:05:13;99743.75;;;12.01;100.00
21960;BME280;11144;43.030;25.108;2023-04-28T07:06:47;99739.19;;;12.04;100.00
21960;BME280;11144;43.030;25.108;2023-04-28T07:08:20;99745.28;;;12.08;100.00
21960;BME280;11144;43.030;25.108;2023-04-28T07:09:53;99742.47;;;12.12;100.00
21960;BME280;11144;43.030;25.108;2023-04-28T07:11:28;99744.84;;;12.20;100.00
21960;BME280;11144;43.030;25.108;2023-04-28T07:13:04;99742.59;;;12.09;100.00
21960;BME280;11144;43.030;25.108;2023-04-28T07:14:37;99746.03;;;12.11;100.00
21960;BME280;11144;43.030;25.108;2023-04-28T07:16:10;99744.00;;;12.19;100.00
21960;BME280;11144;43.030;25.108;2023-04-28T07:17:44;99742.03;;;12.24;100.00
21960;BME280;11144;43.030;25.108;2023-04-28T07:19:17;99753.22;;;12.32;100.00
21960;BME280;11144;43.030;25.108;2023-04-28T07:20:50;99750.78;;;12.26;100.00
21960;BME280;11144;43.030;25.108;2023-04-28T07:22:23;99740.06;;;12.29;100.00
21960;BME280;11144;43.030;25.108;2023-04-28T07:23:57;99738.56;;;12.22;100.00
21960;BME280;11144;43.030;25.108;2023-04-28T07:25:30;99739.09;;;12.07;100.00
21960;BME280;11144;43.030;25.108;2023-04-28T07:27:05;99734.84;;;12.03;100.00
21960;BME280;11144;43.030;25.108;2023-04-28T07:28:38;99738.78;;;12.16;100.00
21960;BME280;11144;43.030;25.108;2023-04-28T07:30:12;99731.75;;;12.15;100.00
21960;BME280;11144;43.030;25.108;2023-04-28T07:31:58;99739.38;;;12.24;100.00
21960;BME280;11144;43.030;25.108;2023-04-28T07:33:32;99736.63;;;12.27;100.00
21960;BME280;11144;43.030;25.108;2023-04-28T07:35:05;99742.03;;;12.24;100.00
21960;BME280;11144;43.030;25.108;2023-04-28T07:36:39;99734.28;;;12.18;100.00
21960;BME280;11144;43.030;25.108;2023-04-28T07:38:12;99749.69;;;12.07;100.00
21960;BME280;11144;43.030;25.108;2023-04-28T07:39:46;99739.81;;;12.12;100.00
21960;BME280;11144;43.030;25.108;2023-04-28T07:41:19;99742.59;;;12.09;100.00
21960;BME280;11144;43.030;25.108;2023-04-28T07:42:54;99737.91;;;12.16;100.00
21960;BME280;11144;43.030;25.108;2023-04-28T07:44:27;99731.31;;;12.27;100.00
21960;BME280;11144;43.030;25.108;2023-04-28T07:46:00;99738.13;;;12.34;100.00
21960;BME280;11144;43.030;25.108;2023-04-28T07:47:34;99733.13;;;12.50;100.00
21960;BME280;11144;43.030;25.108;2023-04-28T07:49:07;99723.03;;;12.59;100.00
21960;BME280;11144;43.030;25.108;2023-04-28T07:50:41;99731.44;;;12.70;100.00
21960;BME280;11144;43.030;25.108;2023-04-28T07:52:14;99725.56;;;12.85;100.00
21960;BME280;11144;43.030;25.108;2023-04-28T07:53:47;99724.88;;;13.03;100.00
21960;BME280;11144;43.030;25.108;2023-04-28T07:55:20;99726.63;;;13.26;100.00
21960;BME280;11144;43.030;25.108;2023-04-28T07:56:55;99726.72;;;13.44;100.00
21960;BME280;11144;43.030;25.108;2023-04-28T07:58:31;99720.06;;;13.56;100.00
21960;BME280;11144;43.030;25.108;2023-04-28T08:00:05;99728.78;;;13.59;100.00
21960;BME280;11144;43.030;25.108;2023-04-28T08:01:45;99733.78;;;13.67;100.00
21960;BME280;11144;43.030;25.108;2023-04-28T08:03:18;99728.78;;;13.59;100.00
21960;BME280;11144;43.030;25.108;2023-04-28T08:04:52;99725.84;;;13.65;100.00
21960;BME280;11144;43.030;25.108;2023-04-28T08:06:26;99723.97;;;13.47;100.00
21960;BME280;11144;43.030;25.108;2023-04-28T08:07:59;99730.88;;;13.51;100.00
21960;BME280;11144;43.030;25.108;2023-04-28T08:09:33;99727.97;;;13.57;100.00